METAR Data
IDs: Format: Raw Decoded Include TAF

Data at: 0927 UTC 20 Sep 2018

PAGH 200911Z AUTO 11006KT 10SM OVC015 06/05 A3004 RMK AO2
PAGH 200856Z AUTO 12003KT 10SM OVC013 06/05 A3004 RMK AO2 RAE30 SLP178 P0000 60002 T00610050 400830050 57001
PAGH 200805Z AUTO 11005KT 7SM -RA OVC015 06/06 A3004 RMK AO2 P0000
PAGH 200756Z AUTO 11007KT 5SM -RA BR BKN013 OVC021 06/06 A3004 RMK AO2 RAE17B33 SLP179 P0001 T00610056
PAGH 200754Z AUTO 11008KT 5SM -RA BR BKN013 OVC021 06/06 A3004 RMK AO2 RAE17B33 P0001
PAGH 200734Z AUTO 11008KT 5SM -RA BR SCT013 SCT020 OVC028 07/06 A3004 RMK AO2 RAE17B33 P0001
PAGH 200656Z AUTO 10010KT 9SM -RA BKN034 OVC042 07/06 A3004 RMK AO2 SLP177 P0001 T00670061
PAGH 200604Z AUTO 10009KT 10SM -RA FEW007 OVC032 07/07 A3004 RMK AO2 P0000
PAGH 200556Z AUTO 11009KT 10SM -RA BKN032 OVC040 07/07 A3004 RMK AO2 SLP176 P0002 60046 T00720067 10078 20072 53000
PAGH 200456Z AUTO 11009KT 10SM -RA SCT030 OVC042 07/07 A3003 RMK AO2 SLP177 P0004 T00720067
PAGH 200430Z AUTO 11010KT 10SM -RA FEW007 SCT012 OVC044 08/07 A3003 RMK AO2 P0002
PAGH 200422Z AUTO 12009KT 10SM -RA FEW007 BKN020 OVC042 08/07 A3003 RMK AO2 P0001
PAGH 200415Z AUTO 12008KT 10SM -RA FEW007 BKN014 OVC042 08/07 A3003 RMK AO2 P0001
PAGH 200404Z AUTO 11010KT 10SM -RA FEW009 SCT022 OVC042 08/07 A3003 RMK AO2 P0000
PAGH 200356Z AUTO 11009KT 10SM -RA FEW010 OVC042 08/07 A3004 RMK AO2 SLP176 P0004 T00780067
PAGH 200327Z AUTO 11012G15KT 10SM -RA SCT006 BKN031 OVC038 08/07 A3003 RMK AO2 P0002
PAGH 200322Z AUTO 13009KT 10SM -RA BKN006 BKN018 OVC040 08/07 A3003 RMK AO2 CIG 004V012 P0002
PAGH 200310Z AUTO 13010KT 9SM -RA SCT008 BKN016 OVC040 08/07 A3003 RMK AO2 P0001
PAGH 200256Z AUTO 13009KT 6SM RA BR BKN010 BKN016 OVC022 08/07 A3004 RMK AO2 CIG 005V012 SLP176 P0020 60036 T00780067 56010
PAGH 200242Z AUTO 12006KT 7SM RA SCT006 BKN013 OVC020 08/07 A3004 RMK AO2 P0016
PAGH 200203Z AUTO 11011KT 8SM RA BKN006 BKN011 OVC027 08/07 A3004 RMK AO2 P0002
PAGH 200156Z AUTO 11009KT 9SM RA SCT008 BKN019 OVC029 08/07 A3004 RMK AO2 SLP179 P0008 T00780072
PAGH 200141Z AUTO 11010KT 8SM RA FEW008 BKN027 OVC032 08/07 A3005 RMK AO2 P0005
PAGH 200132Z AUTO 11012KT 10SM -RA SCT022 BKN033 OVC039 08/07 A3005 RMK AO2 P0004
PAGH 200111Z AUTO 10011KT 10SM RA FEW009 BKN025 OVC036 08/07 A3005 RMK AO2 P0002
PAGH 200056Z AUTO 10011KT 10SM RA BKN021 BKN036 08/07 A3005 RMK AO2 SLP181 P0008 T00780072
PAGH 200046Z AUTO 10009KT 10SM RA BKN019 BKN027 OVC042 08/07 A3005 RMK AO2 P0006
PAGH 200032Z AUTO 11010KT 10SM -RA FEW015 BKN034 OVC042 08/07 A3006 RMK AO2 P0004
PAGH 200013Z AUTO 11011G17KT 10SM -RA SCT009 BKN016 OVC030 08/07 A3006 RMK AO2 P0002
PAGH 200001Z AUTO 13007KT 7SM RA BKN009 BKN018 OVC027 08/07 A3006 RMK AO2 CIG 006V011 P0001
PAGH 192356Z AUTO 14006KT 6SM RA BR SCT009 BKN016 OVC027 08/07 A3006 RMK AO2 SLP186 P0008 60020 T00780072 10083 20056 56011
PAGH 192330Z AUTO 11011KT 10SM -RA SCT009 BKN024 OVC036 08/07 A3006 RMK AO2 P0002
PAGH 192256Z AUTO 10012KT 6SM RA BR OVC007 08/07 A3007 RMK AO2 CIG 005V013 SLP187 P0007 T00830072
PAGH 192244Z AUTO 10009KT 7SM RA BKN007 BKN024 OVC030 08/07 A3007 RMK AO2 CIG 005V014 P0005
PAGH 192237Z AUTO 10008KT 8SM -RA SCT007 BKN024 OVC030 08/07 A3008 RMK AO2 P0004
PAGH 192205Z AUTO 10012G16KT 6SM RA BR SCT009 BKN030 OVC036 08/07 A3008 RMK AO2 P0001
PAGH 192156Z AUTO 09010KT 6SM -RA BR BKN009 BKN016 OVC036 08/07 A3008 RMK AO2 SLP192 P0004 T00780072
PAGH 192143Z AUTO 10008KT 7SM RA BKN009 BKN016 OVC037 08/07 A3009 RMK AO2 P0003
PAGH 192132Z AUTO 10008KT 8SM RA SCT009 BKN016 OVC041 08/07 A3009 RMK AO2 P0001
PAGH 192056Z AUTO 11011KT 10SM -RA FEW009 BKN036 OVC050 08/07 A3010 RMK AO2 RAB09 SLP197 P0001 60001 T00780067 56010
PAGH 192049Z AUTO 10011KT 10SM -RA FEW009 BKN036 OVC050 07/07 A3010 RMK AO2 RAB09 P0001
PAGH 192039Z AUTO 10008KT 10SM -RA FEW026 BKN036 07/07 A3010 RMK AO2 RAB09 P0001
PAGH 192032Z AUTO 10010KT 10SM -RA FEW008 BKN026 BKN036 07/06 A3010 RMK AO2 RAB09 P0001
PAGH 192010Z AUTO 12008KT 10SM -RA BKN026 OVC036 07/06 A3011 RMK AO2 RAB09 P0000
PAGH 191956Z AUTO 10009KT 10SM SCT026 OVC036 07/06 A3011 RMK AO2 RAB08E20 SLP200 P0000 T00720061
PAGH 191920Z AUTO 09010KT 10SM SCT021 OVC038 07/06 A3011 RMK AO2 RAB08E20 P0000
PAGH 191856Z AUTO 10009KT 10SM OVC021 07/06 A3011 RMK AO2 RAB1758E27 SLP203 P0000 T00670061
PAGH 191756Z AUTO 11008KT 7SM OVC029 06/06 A3013 RMK AO2 SLP207 60000 T00560056 10056 20050 58003
PAGH 191656Z AUTO 12006KT 10SM OVC035 05/05 A3013 RMK AO2 RAB02E32 SLP208 P0000 T00500050
PAGH 191641Z AUTO 12005KT 9SM FEW002 OVC037 05/05 A3013 RMK AO2 RAB02E32 P0000
PAGH 191634Z AUTO 11006KT 2SM BR FEW002 OVC037 05/05 A3013 RMK AO2 RAB02E32 P0000
PAGH 191631Z AUTO 11006KT 1SM -RA BR FEW002 OVC037 05/05 A3013 RMK AO2 RAB02 P0000
PAGH 191623Z AUTO 11006KT 1/2SM -RA FG SCT002 OVC033 05/05 A3013 RMK AO2 RAB02 P0000
PAGH 191613Z AUTO 12005KT 1/4SM -RA FG BKN002 OVC033 05/05 A3013 RMK AO2 RAB02 P0000
PAGH 191604Z AUTO 12006KT 1/2SM -RA FG SCT002 OVC035 05/05 A3013 RMK AO2 RAB02 P0000
PAGH 191556Z AUTO 12005KT 1/4SM FG BKN002 OVC037 05/05 A3013 RMK AO2 RAE54 SLP209 P0000 T00500050
PAGH 191552Z AUTO 11006KT 1/2SM -RA FG SCT002 OVC037 05/05 A3013 RMK AO2 P0000
PAGH 191540Z AUTO 11006KT 3/4SM -RA BR SCT002 SCT022 OVC037 05/05 A3014 RMK AO2 P0000
PAGH 191535Z AUTO 10006KT 1SM -RA BR SCT002 BKN022 OVC037 05/05 A3014 RMK AO2 P0000
PAGH 191456Z AUTO 09005KT 3/4SM -RA BR OVC002 05/05 A3014 RMK AO2 RAB30 SLP211 P0000 60000 T00500050 56009
PAGH 191449Z AUTO 11006KT 1/2SM -RA FG OVC002 05/05 A3014 RMK AO2 RAB30 P0000
PAGH 191441Z AUTO 12005KT 3/4SM -RA BR OVC002 05/05 A3014 RMK AO2 RAB30 P0000
PAGH 191404Z AUTO 12005KT 1/2SM FG OVC002 05/05 A3015 RMK AO2
PAGH 191356Z AUTO 12005KT 1/4SM FG OVC002 05/05 A3015 RMK AO2 SLP214 T00500050
PAGH 191348Z AUTO 11006KT 1/2SM FG OVC002 05/05 A3015 RMK AO2
PAGH 191321Z AUTO 11005KT 3/4SM BR BKN002 05/05 A3015 RMK AO2
PAGH 191256Z AUTO 12005KT 1/2SM FG OVC002 05/05 A3015 RMK AO2 SLP216 T00500050
PAGH 191246Z AUTO 12006KT 1/2SM FG OVC002 05/05 A3016 RMK AO2
PAGH 191222Z AUTO 13003KT 1/4SM FG OVC002 05/05 A3017 RMK AO2
PAGH 191204Z AUTO 12004KT 1/2SM FG OVC002 05/05 A3016 RMK AO2
PAGH 191156Z AUTO 11005KT 1/4SM FG OVC002 05/05 A3017 RMK AO2 SLP221 70019 T00500050 10078 20050 57006
PAGH 191104Z AUTO 13005KT 1/4SM FG OVC002 05/05 A3018 RMK AO2
PAGH 191056Z AUTO 12006KT 1/2SM FG OVC002 06/05 A3018 RMK AO2 SLP224 T00560050
PAGH 191034Z AUTO 11005KT 1/4SM FG OVC002 06/05 A3018 RMK AO2
PAGH 191022Z AUTO 10004KT 1/2SM FG OVC002 05/05 A3018 RMK AO2
PAGH 191003Z AUTO 09004KT 1SM BR BKN002 BKN080 05/05 A3018 RMK AO2
PAGH 190955Z AUTO 09005KT 2SM BR FEW002 BKN080 06/05 A3018 RMK AO2
PAGH 190951Z AUTO 11005KT 1SM BR FEW002 BKN075 05/05 A3018 RMK AO2 SLP225 T00500050
PAGH 190950Z AUTO 11004KT 1SM BR FEW002 BKN075 05/05 A3018 RMK AO2
PAGH 190940Z AUTO 09005KT 3/4SM BR FEW070 06/05 A3018 RMK AO2
PAGH 190924Z AUTO 12006KT 1 3/4SM BR SCT001 BKN070 BKN090 06/06 A3018 RMK AO2
PAGH 190917Z AUTO 12005KT 2SM BR BKN001 BKN090 06/06 A3018 RMK AO2
PAGH 190913Z AUTO 13004KT 1SM BR BKN001 06/06 A3018 RMK AO2
PAGH 190906Z AUTO 12004KT 1/2SM FG OVC001 06/06 A3019 RMK AO2
PAGH 190856Z AUTO 13005KT 1/4SM FG BKN001 06/06 A3019 RMK AO2 SLP227 T00610061 400890056 55004
PAGH 190854Z AUTO 13006KT 1/4SM FG BKN001 06/06 A3019 RMK AO2 400890056
PAGH 190810Z AUTO 13004KT 1/2SM FG OVC001 07/06 A3019 RMK AO2
PAGH 190756Z AUTO 12006KT 1/4SM FG OVC001 06/06 A3019 RMK AO2 SLP229 T00610061
PAGH 190738Z AUTO 09006KT 1/4SM FG VV001 06/06 A3019 RMK AO2
PAGH 190729Z AUTO 10006KT 1/4SM FG CLR 06/06 A3019 RMK AO2
PAGH 190720Z AUTO 09006KT 1/2SM FG CLR 06/06 A3019 RMK AO2
PAGH 190711Z AUTO 10006KT 3/4SM BR CLR 06/06 A3020 RMK AO2
PAGH 190656Z AUTO 11004KT 1 3/4SM BR CLR 07/07 A3020 RMK AO2 SLP232 T00670067
PAGH 190556Z AUTO 13003KT 10SM CLR 08/07 A3020 RMK AO2 SLP231 60009 T00780072 10089 20078 53000
PAGH 190456Z AUTO 00000KT 10SM SCT046 08/07 A3020 RMK AO2 RAE0359 SLP231 P0000 T00780072
PAGH 190356Z AUTO 00000KT 10SM -RA OVC042 08/08 A3020 RMK AO2 SLP230 P0000 T00780078
PAGH 190310Z AUTO 32003KT 10SM -RA FEW003 SCT031 OVC047 08/08 A3020 RMK AO2 P0000
PAGH 190256Z AUTO 33004KT 10SM -RA SCT003 BKN029 OVC047 09/08 A3020 RMK AO2 SLP231 P0001 60009 T00890083 58001
PAGH 190223Z AUTO 27004KT 10SM -RA SCT005 SCT009 OVC022 08/08 A3020 RMK AO2 P0001
PAGH 190156Z AUTO 00000KT 9SM -RA BKN005 OVC009 09/08 A3020 RMK AO2 CIG 002V007 SLP232 P0003 T00890078
PAGH 190152Z AUTO 00000KT 7SM -RA SCT003 OVC009 08/08 A3020 RMK AO2 CIG 006V012 P0003
PAGH 190144Z AUTO 13003KT 3SM -RA BR SCT003 OVC011 08/08 A3020 RMK AO2 CIG 006V012 P0003
PAGH 190130Z AUTO 12003KT 2SM -RA BR OVC003 08/08 A3020 RMK AO2 P0002
PAGH 190113Z AUTO 12004KT 3SM -RA BR OVC003 08/08 A3020 RMK AO2 P0000
PAGH 190104Z AUTO 11004KT 2 1/2SM -RA BR BKN003 OVC014 08/08 A3020 RMK AO2 P0000
PAGH 190056Z AUTO 11004KT 2SM -RA BR BKN005 OVC014 08/08 A3020 RMK AO2 CIG 003V009 SLP232 P0005 T00830078
PAGH 190053Z AUTO 12005KT 2SM -RA BR BKN005 OVC014 08/08 A3020 RMK AO2 CIG 003V009 P0005
PAGH 190048Z AUTO 11005KT 1 3/4SM -RA BR BKN007 OVC014 08/08 A3020 RMK AO2 CIG 003V009 P0004
PAGH 190026Z AUTO 12007KT 2 1/2SM -RA BR OVC007 08/08 A3020 RMK AO2 CIG 004V011 P0003
PAGH 190008Z AUTO 12004KT 1 1/2SM RA BR BKN007 OVC010 08/08 A3020 RMK AO2 CIG 004V009 P0001
PAGH 182356Z AUTO 12005KT 2SM -RA BR FEW007 OVC012 08/08 A3020 RMK AO2 SLP233 P0000 60002 T00830078 10083 20061 51003
PAGH 182354Z AUTO 12005KT 2SM -RA BR FEW007 OVC012 08/07 A3020 RMK AO2 P0000
PAGH 182344Z AUTO 11008KT 7SM -RA BKN012 OVC017 08/07 A3020 RMK AO2 P0000
PAGH 182256Z AUTO 11008KT 10SM -RA OVC021 08/07 A3020 RMK AO2 SLP232 P0001 T00830072
PAGH 182228Z AUTO 11009KT 5SM -RA BR FEW014 OVC021 08/07 A3020 RMK AO2 P0000
PAGH 182219Z AUTO 11008KT 4SM -RA BR BKN014 OVC021 08/07 A3020 RMK AO2 P0000
PAGH 182156Z AUTO 11008KT 10SM -RA BKN017 OVC027 08/06 A3020 RMK AO2 SLP232 P0001 T00780061